sensor_id;sensor_type;location;lat;lon;timestamp;P1;durP1;ratioP1;P2;durP2;ratioP2
57311;SDS011;43154;50.966;18.316;2023-04-03T00:02:30;14.20;;;3.40;;
57311;SDS011;43154;50.966;18.316;2023-04-03T00:05:30;15.50;;;3.30;;
57311;SDS011;43154;50.966;18.316;2023-04-03T00:08:13;14.10;;;3.70;;
57311;SDS011;43154;50.966;18.316;2023-04-03T00:14:21;13.20;;;3.40;;
57311;SDS011;43154;50.966;18.316;2023-04-03T00:17:14;12.80;;;3.00;;
57311;SDS011;43154;50.966;18.316;2023-04-03T00:19:54;14.60;;;3.30;;
57311;SDS011;43154;50.966;18.316;2023-04-03T00:26:16;11.60;;;2.80;;
57311;SDS011;43154;50.966;18.316;2023-04-03T00:29:21;13.90;;;3.00;;
57311;SDS011;43154;50.966;18.316;2023-04-03T00:32:05;12.30;;;3.20;;
57311;SDS011;43154;50.966;18.316;2023-04-03T00:34:54;12.20;;;2.70;;
57311;SDS011;43154;50.966;18.316;2023-04-03T00:38:23;14.90;;;3.00;;
57311;SDS011;43154;50.966;18.316;2023-04-03T00:48:11;10.50;;;2.80;;
57311;SDS011;43154;50.966;18.316;2023-04-03T00:51:23;12.50;;;2.90;;
57311;SDS011;43154;50.966;18.316;2023-04-03T00:54:17;13.70;;;3.10;;
57311;SDS011;43154;50.966;18.316;2023-04-03T00:57:19;12.60;;;3.20;;
57311;SDS011;43154;50.966;18.316;2023-04-03T00:59:56;14.90;;;3.40;;
57311;SDS011;43154;50.966;18.316;2023-04-03T01:03:00;15.10;;;3.70;;
57311;SDS011;43154;50.966;18.316;2023-04-03T01:05:44;14.60;;;3.00;;
57311;SDS011;43154;50.966;18.316;2023-04-03T01:08:31;13.30;;;3.20;;
57311;SDS011;43154;50.966;18.316;2023-04-03T01:11:37;11.40;;;2.80;;
57311;SDS011;43154;50.966;18.316;2023-04-03T01:14:50;13.80;;;3.30;;
57311;SDS011;43154;50.966;18.316;2023-04-03T01:18:00;11.70;;;3.00;;
57311;SDS011;43154;50.966;18.316;2023-04-03T01:24:33;14.10;;;3.60;;
57311;SDS011;43154;50.966;18.316;2023-04-03T01:27:14;12.90;;;2.80;;
57311;SDS011;43154;50.966;18.316;2023-04-03T01:30:33;16.90;;;3.20;;
57311;SDS011;43154;50.966;18.316;2023-04-03T01:33:13;15.60;;;3.30;;
57311;SDS011;43154;50.966;18.316;2023-04-03T01:35:55;14.50;;;3.30;;
57311;SDS011;43154;50.966;18.316;2023-04-03T01:42:05;13.40;;;3.10;;
57311;SDS011;43154;50.966;18.316;2023-04-03T01:45:04;13.70;;;3.40;;
57311;SDS011;43154;50.966;18.316;2023-04-03T01:47:50;17.70;;;4.00;;
57311;SDS011;43154;50.966;18.316;2023-04-03T01:50:46;13.60;;;3.60;;
57311;SDS011;43154;50.966;18.316;2023-04-03T01:56:11;13.30;;;3.80;;
57311;SDS011;43154;50.966;18.316;2023-04-03T01:59:07;14.80;;;3.30;;
57311;SDS011;43154;50.966;18.316;2023-04-03T02:04:57;14.40;;;3.70;;
57311;SDS011;43154;50.966;18.316;2023-04-03T02:08:05;16.20;;;3.90;;
57311;SDS011;43154;50.966;18.316;2023-04-03T02:10:50;15.20;;;3.70;;
57311;SDS011;43154;50.966;18.316;2023-04-03T02:13:37;13.20;;;3.70;;
57311;SDS011;43154;50.966;18.316;2023-04-03T02:16:16;16.80;;;3.90;;
57311;SDS011;43154;50.966;18.316;2023-04-03T02:19:21;17.50;;;3.70;;
57311;SDS011;43154;50.966;18.316;2023-04-03T02:22:22;15.90;;;3.80;;
57311;SDS011;43154;50.966;18.316;2023-04-03T02:25:07;13.80;;;3.60;;
57311;SDS011;43154;50.966;18.316;2023-04-03T02:27:54;15.10;;;3.70;;
57311;SDS011;43154;50.966;18.316;2023-04-03T02:36:25;15.70;;;3.70;;
57311;SDS011;43154;50.966;18.316;2023-04-03T02:39:47;17.00;;;4.00;;
57311;SDS011;43154;50.966;18.316;2023-04-03T02:42:44;15.40;;;3.60;;
57311;SDS011;43154;50.966;18.316;2023-04-03T02:45:28;15.30;;;4.00;;
57311;SDS011;43154;50.966;18.316;2023-04-03T02:48:16;16.80;;;3.80;;
57311;SDS011;43154;50.966;18.316;2023-04-03T02:51:07;17.00;;;3.80;;
57311;SDS011;43154;50.966;18.316;2023-04-03T02:54:08;17.60;;;3.90;;
57311;SDS011;43154;50.966;18.316;2023-04-03T02:56:51;15.10;;;4.00;;
57311;SDS011;43154;50.966;18.316;2023-04-03T02:59:47;16.10;;;4.20;;
57311;SDS011;43154;50.966;18.316;2023-04-03T03:02:42;17.20;;;4.30;;
57311;SDS011;43154;50.966;18.316;2023-04-03T03:06:00;16.00;;;4.00;;
57311;SDS011;43154;50.966;18.316;2023-04-03T03:09:07;16.90;;;4.30;;
57311;SDS011;43154;50.966;18.316;2023-04-03T03:15:10;16.10;;;4.00;;
57311;SDS011;43154;50.966;18.316;2023-04-03T03:21:08;17.70;;;4.20;;
57311;SDS011;43154;50.966;18.316;2023-04-03T03:23:53;14.90;;;4.10;;
57311;SDS011;43154;50.966;18.316;2023-04-03T03:27:02;15.40;;;3.80;;
57311;SDS011;43154;50.966;18.316;2023-04-03T03:30:08;16.60;;;4.20;;
57311;SDS011;43154;50.966;18.316;2023-04-03T03:32:43;15.90;;;4.50;;
57311;SDS011;43154;50.966;18.316;2023-04-03T03:35:39;14.50;;;4.10;;
57311;SDS011;43154;50.966;18.316;2023-04-03T03:38:12;15.00;;;4.30;;
57311;SDS011;43154;50.966;18.316;2023-04-03T03:41:07;15.90;;;4.20;;
57311;SDS011;43154;50.966;18.316;2023-04-03T03:43:52;19.90;;;4.80;;
57311;SDS011;43154;50.966;18.316;2023-04-03T03:46:58;19.20;;;4.70;;
57311;SDS011;43154;50.966;18.316;2023-04-03T03:49:46;17.10;;;4.60;;
57311;SDS011;43154;50.966;18.316;2023-04-03T03:55:49;15.80;;;4.60;;
57311;SDS011;43154;50.966;18.316;2023-04-03T03:58:47;20.70;;;5.20;;
57311;SDS011;43154;50.966;18.316;2023-04-03T04:01:46;16.20;;;4.90;;
57311;SDS011;43154;50.966;18.316;2023-04-03T04:04:31;18.90;;;4.80;;
57311;SDS011;43154;50.966;18.316;2023-04-03T04:07:03;15.30;;;4.70;;
57311;SDS011;43154;50.966;18.316;2023-04-03T04:09:56;17.80;;;4.80;;
57311;SDS011;43154;50.966;18.316;2023-04-03T04:12:28;16.70;;;5.20;;
57311;SDS011;43154;50.966;18.316;2023-04-03T04:15:21;16.40;;;4.50;;
57311;SDS011;43154;50.966;18.316;2023-04-03T04:18:05;17.20;;;4.10;;
57311;SDS011;43154;50.966;18.316;2023-04-03T04:20:55;15.40;;;4.60;;
57311;SDS011;43154;50.966;18.316;2023-04-03T04:23:35;19.90;;;4.70;;
57311;SDS011;43154;50.966;18.316;2023-04-03T04:26:15;19.30;;;5.00;;
57311;SDS011;43154;50.966;18.316;2023-04-03T04:29:14;16.30;;;4.70;;
57311;SDS011;43154;50.966;18.316;2023-04-03T04:31:46;18.60;;;4.80;;
57311;SDS011;43154;50.966;18.316;2023-04-03T04:34:23;16.90;;;5.00;;
57311;SDS011;43154;50.966;18.316;2023-04-03T04:37:20;18.00;;;4.40;;
57311;SDS011;43154;50.966;18.316;2023-04-03T04:40:15;16.80;;;3.90;;
57311;SDS011;43154;50.966;18.316;2023-04-03T04:42:54;14.90;;;4.80;;
57311;SDS011;43154;50.966;18.316;2023-04-03T04:46:04;14.80;;;4.30;;
57311;SDS011;43154;50.966;18.316;2023-04-03T04:48:54;20.90;;;4.20;;
57311;SDS011;43154;50.966;18.316;2023-04-03T04:51:29;16.20;;;4.30;;
57311;SDS011;43154;50.966;18.316;2023-04-03T04:54:02;15.80;;;3.90;;
57311;SDS011;43154;50.966;18.316;2023-04-03T04:56:50;14.10;;;3.90;;
57311;SDS011;43154;50.966;18.316;2023-04-03T04:59:46;16.60;;;4.30;;
57311;SDS011;43154;50.966;18.316;2023-04-03T05:02:20;20.30;;;4.80;;
57311;SDS011;43154;50.966;18.316;2023-04-03T05:05:35;18.10;;;4.80;;
57311;SDS011;43154;50.966;18.316;2023-04-03T05:12:25;17.00;;;5.10;;
57311;SDS011;43154;50.966;18.316;2023-04-03T05:15:22;22.10;;;5.10;;
57311;SDS011;43154;50.966;18.316;2023-04-03T05:18:12;19.90;;;5.30;;
57311;SDS011;43154;50.966;18.316;2023-04-03T05:20:47;18.50;;;4.90;;
57311;SDS011;43154;50.966;18.316;2023-04-03T05:23:51;16.20;;;4.70;;
57311;SDS011;43154;50.966;18.316;2023-04-03T05:26:25;52.40;;;18.10;;
57311;SDS011;43154;50.966;18.316;2023-04-03T05:32:13;36.60;;;12.00;;
57311;SDS011;43154;50.966;18.316;2023-04-03T05:34:54;31.20;;;9.60;;
57311;SDS011;43154;50.966;18.316;2023-04-03T05:37:27;57.10;;;17.30;;
57311;SDS011;43154;50.966;18.316;2023-04-03T05:40:19;52.40;;;16.30;;
57311;SDS011;43154;50.966;18.316;2023-04-03T05:43:21;48.20;;;14.30;;
57311;SDS011;43154;50.966;18.316;2023-04-03T05:45:58;62.00;;;18.40;;
57311;SDS011;43154;50.966;18.316;2023-04-03T05:48:47;48.10;;;14.60;;
57311;SDS011;43154;50.966;18.316;2023-04-03T05:57:33;45.50;;;13.20;;
57311;SDS011;43154;50.966;18.316;2023-04-03T05:59:59;35.20;;;9.60;;
57311;SDS011;43154;50.966;18.316;2023-04-03T06:02:26;34.80;;;8.20;;
57311;SDS011;43154;50.966;18.316;2023-04-03T06:04:52;30.70;;;7.80;;
57311;SDS011;43154;50.966;18.316;2023-04-03T06:07:20;20.50;;;5.10;;
57311;SDS011;43154;50.966;18.316;2023-04-03T06:09:48;38.60;;;10.60;;
57311;SDS011;43154;50.966;18.316;2023-04-03T06:12:16;19.00;;;6.10;;
57311;SDS011;43154;50.966;18.316;2023-04-03T06:14:43;29.10;;;7.30;;
57311;SDS011;43154;50.966;18.316;2023-04-03T06:17:09;17.80;;;4.90;;
57311;SDS011;43154;50.966;18.316;2023-04-03T06:19:37;20.30;;;5.50;;
57311;SDS011;43154;50.966;18.316;2023-04-03T06:22:04;15.90;;;4.30;;
57311;SDS011;43154;50.966;18.316;2023-04-03T06:24:30;15.00;;;4.50;;
57311;SDS011;43154;50.966;18.316;2023-04-03T06:26:56;27.00;;;6.60;;
57311;SDS011;43154;50.966;18.316;2023-04-03T06:29:23;17.50;;;4.50;;
57311;SDS011;43154;50.966;18.316;2023-04-03T06:31:50;17.90;;;4.60;;
57311;SDS011;43154;50.966;18.316;2023-04-03T06:34:19;22.40;;;5.90;;
57311;SDS011;43154;50.966;18.316;2023-04-03T06:36:45;16.40;;;4.40;;
57311;SDS011;43154;50.966;18.316;2023-04-03T06:39:13;14.00;;;4.30;;
57311;SDS011;43154;50.966;18.316;2023-04-03T06:41:46;20.10;;;5.40;;
57311;SDS011;43154;50.966;18.316;2023-04-03T06:44:15;17.20;;;3.60;;
57311;SDS011;43154;50.966;18.316;2023-04-03T06:46:46;21.60;;;5.30;;
57311;SDS011;43154;50.966;18.316;2023-04-03T06:49:15;26.30;;;7.50;;
57311;SDS011;43154;50.966;18.316;2023-04-03T06:51:41;21.30;;;5.90;;
57311;SDS011;43154;50.966;18.316;2023-04-03T06:54:07;25.10;;;6.80;;
57311;SDS011;43154;50.966;18.316;2023-04-03T06:56:34;13.20;;;3.70;;
57311;SDS011;43154;50.966;18.316;2023-04-03T06:59:00;13.90;;;3.30;;
57311;SDS011;43154;50.966;18.316;2023-04-03T07:01:29;14.20;;;4.00;;
57311;SDS011;43154;50.966;18.316;2023-04-03T07:03:56;24.30;;;6.50;;
57311;SDS011;43154;50.966;18.316;2023-04-03T07:06:23;25.90;;;6.90;;
57311;SDS011;43154;50.966;18.316;2023-04-03T07:08:52;15.90;;;3.90;;
57311;SDS011;43154;50.966;18.316;2023-04-03T07:11:20;25.70;;;6.70;;
57311;SDS011;43154;50.966;18.316;2023-04-03T07:13:50;17.60;;;4.60;;
57311;SDS011;43154;50.966;18.316;2023-04-03T07:16:16;27.90;;;7.40;;
57311;SDS011;43154;50.966;18.316;2023-04-03T07:18:42;13.00;;;3.50;;
57311;SDS011;43154;50.966;18.316;2023-04-03T07:21:09;13.70;;;3.50;;
57311;SDS011;43154;50.966;18.316;2023-04-03T07:27:09;15.60;;;3.80;;
57311;SDS011;43154;50.966;18.316;2023-04-03T07:29:36;13.70;;;3.40;;
57311;SDS011;43154;50.966;18.316;2023-04-03T07:32:02;15.40;;;4.40;;
57311;SDS011;43154;50.966;18.316;2023-04-03T07:34:29;25.90;;;6.90;;
57311;SDS011;43154;50.966;18.316;2023-04-03T07:36:59;26.80;;;7.50;;
57311;SDS011;43154;50.966;18.316;2023-04-03T07:39:27;12.60;;;3.50;;
57311;SDS011;43154;50.966;18.316;2023-04-03T07:41:54;11.90;;;3.80;;
57311;SDS011;43154;50.966;18.316;2023-04-03T07:44:23;11.70;;;3.30;;
57311;SDS011;43154;50.966;18.316;2023-04-03T07:46:51;16.90;;;4.80;;
57311;SDS011;43154;50.966;18.316;2023-04-03T07:49:17;15.20;;;3.30;;
57311;SDS011;43154;50.966;18.316;2023-04-03T07:51:46;15.60;;;5.30;;
57311;SDS011;43154;50.966;18.316;2023-04-03T07:54:12;17.70;;;4.20;;
57311;SDS011;43154;50.966;18.316;2023-04-03T07:56:38;14.00;;;4.00;;
57311;SDS011;43154;50.966;18.316;2023-04-03T07:59:07;13.40;;;3.90;;
57311;SDS011;43154;50.966;18.316;2023-04-03T08:01:37;10.90;;;3.40;;
57311;SDS011;43154;50.966;18.316;2023-04-03T08:04:03;17.00;;;5.00;;
57311;SDS011;43154;50.966;18.316;2023-04-03T08:06:30;11.50;;;3.00;;
57311;SDS011;43154;50.966;18.316;2023-04-03T08:08:59;19.80;;;5.40;;
57311;SDS011;43154;50.966;18.316;2023-04-03T08:11:26;10.40;;;2.80;;
57311;SDS011;43154;50.966;18.316;2023-04-03T08:13:52;11.40;;;2.80;;
57311;SDS011;43154;50.966;18.316;2023-04-03T08:16:20;17.40;;;4.90;;
57311;SDS011;43154;50.966;18.316;2023-04-03T08:18:49;17.20;;;4.50;;
57311;SDS011;43154;50.966;18.316;2023-04-03T08:21:16;10.50;;;2.40;;
57311;SDS011;43154;50.966;18.316;2023-04-03T08:23:47;11.40;;;3.10;;
57311;SDS011;43154;50.966;18.316;2023-04-03T08:26:16;11.90;;;2.30;;
57311;SDS011;43154;50.966;18.316;2023-04-03T08:28:43;11.40;;;2.30;;
57311;SDS011;43154;50.966;18.316;2023-04-03T08:31:14;8.10;;;2.20;;
57311;SDS011;43154;50.966;18.316;2023-04-03T08:33:45;9.10;;;2.10;;
57311;SDS011;43154;50.966;18.316;2023-04-03T08:36:19;10.10;;;2.60;;
57311;SDS011;43154;50.966;18.316;2023-04-03T08:38:56;8.50;;;2.00;;
57311;SDS011;43154;50.966;18.316;2023-04-03T08:41:33;14.60;;;4.60;;
57311;SDS011;43154;50.966;18.316;2023-04-03T08:44:10;9.20;;;2.20;;
57311;SDS011;43154;50.966;18.316;2023-04-03T08:46:45;7.60;;;2.00;;
57311;SDS011;43154;50.966;18.316;2023-04-03T08:49:21;9.60;;;2.60;;
57311;SDS011;43154;50.966;18.316;2023-04-03T09:23:53;9.70;;;2.40;;
57311;SDS011;43154;50.966;18.316;2023-04-03T09:26:23;10.00;;;2.50;;
57311;SDS011;43154;50.966;18.316;2023-04-03T09:29:07;7.90;;;2.30;;
57311;SDS011;43154;50.966;18.316;2023-04-03T09:31:42;10.60;;;2.80;;
57311;SDS011;43154;50.966;18.316;2023-04-03T09:34:26;9.20;;;2.50;;
57311;SDS011;43154;50.966;18.316;2023-04-03T09:36:54;12.10;;;3.20;;
57311;SDS011;43154;50.966;18.316;2023-04-03T09:39:25;10.10;;;2.60;;
57311;SDS011;43154;50.966;18.316;2023-04-03T09:41:57;11.60;;;2.60;;
57311;SDS011;43154;50.966;18.316;2023-04-03T09:44:26;9.60;;;2.60;;
57311;SDS011;43154;50.966;18.316;2023-04-03T09:47:16;11.00;;;2.80;;
57311;SDS011;43154;50.966;18.316;2023-04-03T09:49:43;10.70;;;2.90;;
57311;SDS011;43154;50.966;18.316;2023-04-03T09:52:20;13.60;;;2.90;;
57311;SDS011;43154;50.966;18.316;2023-04-03T09:54:49;9.40;;;2.60;;
57311;SDS011;43154;50.966;18.316;2023-04-03T09:57:15;7.30;;;2.30;;
57311;SDS011;43154;50.966;18.316;2023-04-03T09:59:47;8.90;;;2.30;;
57311;SDS011;43154;50.966;18.316;2023-04-03T10:02:36;10.10;;;2.40;;
57311;SDS011;43154;50.966;18.316;2023-04-03T10:05:04;10.90;;;2.50;;
57311;SDS011;43154;50.966;18.316;2023-04-03T10:07:49;9.70;;;2.30;;
57311;SDS011;43154;50.966;18.316;2023-04-03T10:10:18;9.10;;;2.60;;
57311;SDS011;43154;50.966;18.316;2023-04-03T10:12:45;9.20;;;2.40;;
57311;SDS011;43154;50.966;18.316;2023-04-03T10:15:13;8.30;;;2.30;;
57311;SDS011;43154;50.966;18.316;2023-04-03T10:23:22;11.70;;;2.70;;
57311;SDS011;43154;50.966;18.316;2023-04-03T10:28:54;10.20;;;2.60;;
57311;SDS011;43154;50.966;18.316;2023-04-03T10:34:38;9.10;;;2.60;;
57311;SDS011;43154;50.966;18.316;2023-04-03T10:37:14;7.70;;;2.30;;
57311;SDS011;43154;50.966;18.316;2023-04-03T10:40:02;9.50;;;2.50;;
57311;SDS011;43154;50.966;18.316;2023-04-03T10:42:43;9.70;;;2.60;;
57311;SDS011;43154;50.966;18.316;2023-04-03T10:50:54;9.20;;;2.60;;
57311;SDS011;43154;50.966;18.316;2023-04-03T10:53:39;10.80;;;2.80;;
57311;SDS011;43154;50.966;18.316;2023-04-03T10:58:58;10.30;;;3.00;;
57311;SDS011;43154;50.966;18.316;2023-04-03T11:01:33;12.90;;;3.50;;
57311;SDS011;43154;50.966;18.316;2023-04-03T11:04:01;12.70;;;4.70;;
57311;SDS011;43154;50.966;18.316;2023-04-03T11:06:45;9.00;;;2.70;;
57311;SDS011;43154;50.966;18.316;2023-04-03T11:09:30;9.20;;;2.50;;
57311;SDS011;43154;50.966;18.316;2023-04-03T11:12:04;10.60;;;2.90;;
57311;SDS011;43154;50.966;18.316;2023-04-03T11:14:36;10.20;;;3.10;;
57311;SDS011;43154;50.966;18.316;2023-04-03T11:19:39;12.70;;;3.10;;
57311;SDS011;43154;50.966;18.316;2023-04-03T11:22:23;10.50;;;3.10;;
57311;SDS011;43154;50.966;18.316;2023-04-03T11:27:53;8.70;;;2.50;;
57311;SDS011;43154;50.966;18.316;2023-04-03T11:35:58;10.60;;;2.60;;
57311;SDS011;43154;50.966;18.316;2023-04-03T11:38:49;8.10;;;2.30;;
57311;SDS011;43154;50.966;18.316;2023-04-03T11:41:18;9.80;;;2.80;;
57311;SDS011;43154;50.966;18.316;2023-04-03T11:43:56;10.80;;;3.00;;
57311;SDS011;43154;50.966;18.316;2023-04-03T12:08:47;8.40;;;2.20;;
57311;SDS011;43154;50.966;18.316;2023-04-03T12:11:34;9.50;;;2.60;;
57311;SDS011;43154;50.966;18.316;2023-04-03T12:14:03;9.90;;;2.50;;
57311;SDS011;43154;50.966;18.316;2023-04-03T12:22:17;9.00;;;2.70;;
57311;SDS011;43154;50.966;18.316;2023-04-03T12:24:51;10.90;;;2.70;;
57311;SDS011;43154;50.966;18.316;2023-04-03T12:27:28;8.30;;;2.30;;
57311;SDS011;43154;50.966;18.316;2023-04-03T12:30:15;8.60;;;2.50;;
57311;SDS011;43154;50.966;18.316;2023-04-03T12:33:03;10.20;;;2.90;;
57311;SDS011;43154;50.966;18.316;2023-04-03T12:35:43;11.90;;;3.90;;
57311;SDS011;43154;50.966;18.316;2023-04-03T12:46:48;9.00;;;2.60;;
57311;SDS011;43154;50.966;18.316;2023-04-03T12:52:18;10.80;;;2.90;;
57311;SDS011;43154;50.966;18.316;2023-04-03T12:54:46;9.60;;;2.30;;
57311;SDS011;43154;50.966;18.316;2023-04-03T12:57:21;12.00;;;2.90;;
57311;SDS011;43154;50.966;18.316;2023-04-03T12:59:52;11.50;;;3.10;;
57311;SDS011;43154;50.966;18.316;2023-04-03T13:02:21;9.10;;;2.60;;
57311;SDS011;43154;50.966;18.316;2023-04-03T13:04:52;10.20;;;2.90;;
57311;SDS011;43154;50.966;18.316;2023-04-03T13:07:24;9.70;;;2.60;;
57311;SDS011;43154;50.966;18.316;2023-04-03T13:10:16;9.30;;;2.70;;
57311;SDS011;43154;50.966;18.316;2023-04-03T13:12:49;9.30;;;2.60;;
57311;SDS011;43154;50.966;18.316;2023-04-03T13:17:54;10.50;;;2.90;;
57311;SDS011;43154;50.966;18.316;2023-04-03T13:20:25;8.90;;;2.70;;
57311;SDS011;43154;50.966;18.316;2023-04-03T13:22:58;9.50;;;2.80;;
57311;SDS011;43154;50.966;18.316;2023-04-03T13:25:33;9.70;;;2.50;;
57311;SDS011;43154;50.966;18.316;2023-04-03T13:28:06;8.70;;;2.80;;
57311;SDS011;43154;50.966;18.316;2023-04-03T13:30:36;11.70;;;3.10;;
57311;SDS011;43154;50.966;18.316;2023-04-03T13:36:04;9.90;;;3.00;;
57311;SDS011;43154;50.966;18.316;2023-04-03T13:38:32;8.80;;;2.80;;
57311;SDS011;43154;50.966;18.316;2023-04-03T13:41:20;9.30;;;2.50;;
57311;SDS011;43154;50.966;18.316;2023-04-03T13:43:56;8.90;;;2.40;;
57311;SDS011;43154;50.966;18.316;2023-04-03T13:46:41;9.30;;;2.50;;
57311;SDS011;43154;50.966;18.316;2023-04-03T13:52:30;8.70;;;2.20;;
57311;SDS011;43154;50.966;18.316;2023-04-03T13:55:23;13.60;;;3.20;;
57311;SDS011;43154;50.966;18.316;2023-04-03T14:06:12;9.80;;;2.80;;
57311;SDS011;43154;50.966;18.316;2023-04-03T14:08:43;9.50;;;2.60;;
57311;SDS011;43154;50.966;18.316;2023-04-03T14:11:14;9.40;;;2.30;;
57311;SDS011;43154;50.966;18.316;2023-04-03T14:13:43;9.00;;;2.70;;
57311;SDS011;43154;50.966;18.316;2023-04-03T14:16:15;10.90;;;3.40;;
57311;SDS011;43154;50.966;18.316;2023-04-03T14:19:09;8.30;;;2.30;;
57311;SDS011;43154;50.966;18.316;2023-04-03T14:21:43;11.10;;;2.90;;
57311;SDS011;43154;50.966;18.316;2023-04-03T14:24:11;9.10;;;2.60;;
57311;SDS011;43154;50.966;18.316;2023-04-03T14:26:38;8.90;;;2.90;;
57311;SDS011;43154;50.966;18.316;2023-04-03T14:29:04;8.50;;;2.40;;
57311;SDS011;43154;50.966;18.316;2023-04-03T14:31:31;9.30;;;2.30;;
57311;SDS011;43154;50.966;18.316;2023-04-03T14:33:57;8.70;;;2.50;;
57311;SDS011;43154;50.966;18.316;2023-04-03T14:36:27;8.90;;;2.40;;
57311;SDS011;43154;50.966;18.316;2023-04-03T14:38:57;9.40;;;2.50;;
57311;SDS011;43154;50.966;18.316;2023-04-03T14:41:25;8.30;;;2.30;;
57311;SDS011;43154;50.966;18.316;2023-04-03T14:43:51;9.20;;;2.70;;
57311;SDS011;43154;50.966;18.316;2023-04-03T14:48:57;9.30;;;2.40;;
57311;SDS011;43154;50.966;18.316;2023-04-03T14:51:24;9.60;;;2.70;;
57311;SDS011;43154;50.966;18.316;2023-04-03T14:53:50;10.90;;;3.00;;
57311;SDS011;43154;50.966;18.316;2023-04-03T14:56:27;10.10;;;2.60;;
57311;SDS011;43154;50.966;18.316;2023-04-03T14:58:58;14.00;;;4.10;;
57311;SDS011;43154;50.966;18.316;2023-04-03T15:01:26;9.70;;;2.70;;
57311;SDS011;43154;50.966;18.316;2023-04-03T15:03:53;11.10;;;2.90;;
57311;SDS011;43154;50.966;18.316;2023-04-03T15:06:21;11.40;;;2.80;;
57311;SDS011;43154;50.966;18.316;2023-04-03T15:08:47;13.50;;;4.00;;
57311;SDS011;43154;50.966;18.316;2023-04-03T15:11:16;15.60;;;4.90;;
57311;SDS011;43154;50.966;18.316;2023-04-03T15:13:42;40.90;;;13.40;;
57311;SDS011;43154;50.966;18.316;2023-04-03T15:16:14;14.80;;;5.70;;
57311;SDS011;43154;50.966;18.316;2023-04-03T15:18:44;14.40;;;4.90;;
57311;SDS011;43154;50.966;18.316;2023-04-03T15:21:11;25.40;;;10.60;;
57311;SDS011;43154;50.966;18.316;2023-04-03T15:23:37;22.10;;;9.30;;
57311;SDS011;43154;50.966;18.316;2023-04-03T15:26:04;12.10;;;3.90;;
57311;SDS011;43154;50.966;18.316;2023-04-03T15:28:40;13.30;;;5.00;;
57311;SDS011;43154;50.966;18.316;2023-04-03T15:31:08;14.10;;;4.70;;
57311;SDS011;43154;50.966;18.316;2023-04-03T15:33:34;11.00;;;3.60;;
57311;SDS011;43154;50.966;18.316;2023-04-03T15:36:01;14.30;;;4.00;;
57311;SDS011;43154;50.966;18.316;2023-04-03T15:38:27;9.90;;;3.10;;
57311;SDS011;43154;50.966;18.316;2023-04-03T15:40:54;14.20;;;3.90;;
57311;SDS011;43154;50.966;18.316;2023-04-03T15:43:20;13.60;;;3.60;;
57311;SDS011;43154;50.966;18.316;2023-04-03T15:45:49;11.60;;;3.20;;
57311;SDS011;43154;50.966;18.316;2023-04-03T15:48:16;12.40;;;3.20;;
57311;SDS011;43154;50.966;18.316;2023-04-03T15:50:43;13.70;;;3.70;;
57311;SDS011;43154;50.966;18.316;2023-04-03T15:53:09;14.70;;;4.10;;
57311;SDS011;43154;50.966;18.316;2023-04-03T15:55:36;17.50;;;6.30;;
57311;SDS011;43154;50.966;18.316;2023-04-03T15:58:03;10.70;;;3.10;;
57311;SDS011;43154;50.966;18.316;2023-04-03T16:00:30;13.50;;;3.20;;
57311;SDS011;43154;50.966;18.316;2023-04-03T16:03:02;13.40;;;3.80;;
57311;SDS011;43154;50.966;18.316;2023-04-03T16:05:33;16.80;;;4.70;;
57311;SDS011;43154;50.966;18.316;2023-04-03T16:08:01;11.20;;;3.30;;
57311;SDS011;43154;50.966;18.316;2023-04-03T16:10:28;14.40;;;5.00;;
57311;SDS011;43154;50.966;18.316;2023-04-03T16:12:54;13.00;;;4.70;;
57311;SDS011;43154;50.966;18.316;2023-04-03T16:15:21;11.20;;;3.60;;
57311;SDS011;43154;50.966;18.316;2023-04-03T16:17:48;10.70;;;3.40;;
57311;SDS011;43154;50.966;18.316;2023-04-03T16:20:14;12.50;;;4.00;;
57311;SDS011;43154;50.966;18.316;2023-04-03T16:22:41;14.00;;;4.10;;
57311;SDS011;43154;50.966;18.316;2023-04-03T16:25:08;10.20;;;3.10;;
57311;SDS011;43154;50.966;18.316;2023-04-03T16:27:34;11.60;;;3.00;;
57311;SDS011;43154;50.966;18.316;2023-04-03T16:30:00;9.80;;;2.90;;
57311;SDS011;43154;50.966;18.316;2023-04-03T16:32:27;11.40;;;3.40;;
57311;SDS011;43154;50.966;18.316;2023-04-03T16:34:55;10.30;;;3.50;;
57311;SDS011;43154;50.966;18.316;2023-04-03T16:37:22;11.40;;;3.40;;
57311;SDS011;43154;50.966;18.316;2023-04-03T16:39:48;12.30;;;3.80;;
57311;SDS011;43154;50.966;18.316;2023-04-03T16:42:15;11.10;;;3.10;;
57311;SDS011;43154;50.966;18.316;2023-04-03T16:44:41;11.00;;;3.30;;
57311;SDS011;43154;50.966;18.316;2023-04-03T16:47:07;17.40;;;5.90;;
57311;SDS011;43154;50.966;18.316;2023-04-03T16:49:36;13.90;;;5.20;;
57311;SDS011;43154;50.966;18.316;2023-04-03T16:52:02;13.70;;;3.90;;
57311;SDS011;43154;50.966;18.316;2023-04-03T16:54:30;12.80;;;3.70;;
57311;SDS011;43154;50.966;18.316;2023-04-03T16:56:56;14.20;;;4.50;;
57311;SDS011;43154;50.966;18.316;2023-04-03T16:59:22;11.60;;;3.30;;
57311;SDS011;43154;50.966;18.316;2023-04-03T17:01:49;13.20;;;3.70;;
57311;SDS011;43154;50.966;18.316;2023-04-03T17:04:15;13.70;;;3.90;;
57311;SDS011;43154;50.966;18.316;2023-04-03T17:06:41;17.90;;;5.50;;
57311;SDS011;43154;50.966;18.316;2023-04-03T17:09:08;15.30;;;4.60;;
57311;SDS011;43154;50.966;18.316;2023-04-03T17:11:34;14.20;;;4.10;;
57311;SDS011;43154;50.966;18.316;2023-04-03T17:14:01;23.30;;;7.80;;
57311;SDS011;43154;50.966;18.316;2023-04-03T17:16:29;34.80;;;11.10;;
57311;SDS011;43154;50.966;18.316;2023-04-03T17:18:56;38.00;;;11.40;;
57311;SDS011;43154;50.966;18.316;2023-04-03T17:21:22;28.20;;;8.80;;
57311;SDS011;43154;50.966;18.316;2023-04-03T17:23:49;22.80;;;7.10;;
57311;SDS011;43154;50.966;18.316;2023-04-03T17:26:18;39.40;;;12.90;;
57311;SDS011;43154;50.966;18.316;2023-04-03T17:28:46;33.70;;;9.60;;
57311;SDS011;43154;50.966;18.316;2023-04-03T17:31:12;40.70;;;12.70;;
57311;SDS011;43154;50.966;18.316;2023-04-03T17:33:38;36.80;;;11.10;;
57311;SDS011;43154;50.966;18.316;2023-04-03T17:36:04;31.20;;;9.20;;
57311;SDS011;43154;50.966;18.316;2023-04-03T17:38:32;44.80;;;13.00;;
57311;SDS011;43154;50.966;18.316;2023-04-03T17:41:00;43.70;;;12.70;;
57311;SDS011;43154;50.966;18.316;2023-04-03T17:43:29;53.70;;;15.10;;
57311;SDS011;43154;50.966;18.316;2023-04-03T17:45:59;35.90;;;11.40;;
57311;SDS011;43154;50.966;18.316;2023-04-03T17:48:29;31.40;;;9.10;;
57311;SDS011;43154;50.966;18.316;2023-04-03T17:50:56;65.60;;;20.30;;
57311;SDS011;43154;50.966;18.316;2023-04-03T17:53:22;55.50;;;16.40;;
57311;SDS011;43154;50.966;18.316;2023-04-03T17:55:49;36.50;;;11.80;;
57311;SDS011;43154;50.966;18.316;2023-04-03T17:58:16;55.50;;;17.90;;
57311;SDS011;43154;50.966;18.316;2023-04-03T18:00:42;43.80;;;14.40;;
57311;SDS011;43154;50.966;18.316;2023-04-03T18:03:09;40.20;;;13.50;;
57311;SDS011;43154;50.966;18.316;2023-04-03T18:05:35;50.90;;;15.50;;
57311;SDS011;43154;50.966;18.316;2023-04-03T18:08:02;27.50;;;10.10;;
57311;SDS011;43154;50.966;18.316;2023-04-03T18:10:28;21.00;;;7.50;;
57311;SDS011;43154;50.966;18.316;2023-04-03T18:12:55;24.90;;;7.90;;
57311;SDS011;43154;50.966;18.316;2023-04-03T18:15:22;34.00;;;12.20;;
57311;SDS011;43154;50.966;18.316;2023-04-03T18:17:50;28.50;;;10.10;;
57311;SDS011;43154;50.966;18.316;2023-04-03T18:20:21;27.30;;;9.50;;